Time;durP1;ratioP1;P1;durP2;ratioP2;P2;SDS_P1;SDS_P2;PMS_P1;PMS_P2;Temp;Humidity;BMP_temperature;BMP_pressure;BME280_temperature;BME280_humidity;BME280_pressure;Samples;Min_cycle;Max_cycle;Signal;HPM_P1;HPM_P2
2022/11/30 00:01:50;;;;;;;10.75;10.35;;;5.20;99.90;;;;;;5020364;28;20049;-76
2022/11/30 00:04:16;;;;;;;10.70;10.30;;;5.20;99.90;;;;;;5018378;28;20373;-75
2022/11/30 00:06:42;;;;;;;9.88;9.57;;;5.10;99.90;;;;;;5020617;28;20504;-75
2022/11/30 00:09:07;;;;;;;10.00;9.68;;;5.00;99.90;;;;;;5012535;28;20034;-75
2022/11/30 00:11:33;;;;;;;9.82;9.50;;;5.00;99.90;;;;;;5012766;28;20026;-75
2022/11/30 00:13:59;;;;;;;10.45;10.05;;;5.00;99.90;;;;;;5018344;28;20025;-75
2022/11/30 00:16:26;;;;;;;11.75;11.35;;;5.10;99.90;;;;;;5032339;28;20040;-75
2022/11/30 00:18:51;;;;;;;11.75;11.35;;;5.10;99.90;;;;;;5013331;28;20029;-75
2022/11/30 00:21:17;;;;;;;10.95;10.55;;;5.10;99.90;;;;;;5012499;28;20022;-75
2022/11/30 00:23:45;;;;;;;10.85;10.45;;;5.10;99.90;;;;;;5012499;28;20498;-75
2022/11/30 00:26:15;;;;;;;11.90;11.50;;;5.10;99.90;;;;;;5012689;28;20018;-75
2022/11/30 00:28:42;;;;;;;10.82;10.43;;;5.00;99.90;;;;;;4999235;28;20033;-75
2022/11/30 00:31:10;;;;;;;11.90;11.50;;;4.90;99.90;;;;;;5012476;28;20026;-75
2022/11/30 00:33:37;;;;;;;11.52;11.13;;;5.00;99.90;;;;;;5024959;28;20112;-75
2022/11/30 00:36:09;;;;;;;12.35;11.95;;;4.90;99.90;;;;;;5025557;28;20026;-75
2022/11/30 00:38:35;;;;;;;10.07;9.73;;;4.90;99.90;;;;;;5018792;28;20036;-76
2022/11/30 00:41:01;;;;;;;11.07;10.68;;;4.90;99.90;;;;;;5018871;28;20030;-77
2022/11/30 00:43:27;;;;;;;11.35;10.95;;;4.90;99.90;;;;;;5031951;28;20477;-75
2022/11/30 00:45:53;;;;;;;12.25;11.85;;;4.90;99.90;;;;;;5017049;28;20092;-77
2022/11/30 00:48:18;;;;;;;18.20;17.20;;;4.90;99.90;;;;;;5020714;28;20029;-77
2022/11/30 00:50:44;;;;;;;10.65;10.25;;;4.90;99.90;;;;;;5018216;28;20485;-76
2022/11/30 00:53:10;;;;;;;11.25;10.85;;;5.00;99.90;;;;;;5023551;28;20029;-76
2022/11/30 00:55:35;;;;;;;11.95;11.55;;;4.90;99.90;;;;;;5014138;28;20480;-76
2022/11/30 00:58:01;;;;;;;10.90;10.50;;;4.90;99.90;;;;;;5023009;28;20120;-76
2022/11/30 01:00:27;;;;;;;11.13;10.73;;;4.90;99.90;;;;;;5025322;28;20034;-76
2022/11/30 01:02:58;;;;;;;10.70;10.30;;;4.90;99.90;;;;;;5017814;28;20117;-76
2022/11/30 01:05:24;;;;;;;11.43;11.02;;;4.90;99.90;;;;;;5017788;28;20516;-76
2022/11/30 01:07:49;;;;;;;11.32;10.93;;;4.90;99.90;;;;;;5022822;28;20125;-76
2022/11/30 01:10:15;;;;;;;11.63;11.23;;;5.00;99.90;;;;;;5025088;28;20533;-76
2022/11/30 01:12:40;;;;;;;11.50;11.10;;;5.00;99.90;;;;;;5019335;28;20025;-77
2022/11/30 01:15:06;;;;;;;11.52;11.13;;;5.00;99.90;;;;;;5018607;28;20099;-76
2022/11/30 01:17:32;;;;;;;12.75;12.25;;;5.00;99.90;;;;;;5024119;28;20030;-75
2022/11/30 01:19:58;;;;;;;12.02;11.63;;;5.00;99.90;;;;;;5010852;28;20488;-76
2022/11/30 01:22:23;;;;;;;12.82;12.38;;;4.90;99.90;;;;;;5019277;28;20479;-77
2022/11/30 01:24:49;;;;;;;10.25;9.85;;;5.00;99.90;;;;;;5018193;28;20113;-76
2022/11/30 01:27:14;;;;;;;10.45;10.05;;;4.80;99.90;;;;;;5024053;28;20109;-76
2022/11/30 01:29:40;;;;;;;10.98;10.57;;;4.70;99.90;;;;;;5012720;28;20026;-77
2022/11/30 01:32:05;;;;;;;11.45;11.05;;;4.80;99.90;;;;;;5015363;28;20022;-77
2022/11/30 01:34:31;;;;;;;10.55;10.15;;;4.80;99.90;;;;;;5012339;28;20030;-76
2022/11/30 01:36:56;;;;;;;11.60;11.20;;;4.90;99.90;;;;;;5031379;28;20026;-77
2022/11/30 01:39:22;;;;;;;11.07;10.68;;;4.90;99.90;;;;;;5018282;28;20034;-76
2022/11/30 01:41:47;;;;;;;11.40;11.00;;;4.90;99.90;;;;;;5016801;28;20163;-77
2022/11/30 01:44:13;;;;;;;11.55;11.15;;;4.90;99.90;;;;;;5018474;28;20045;-76
2022/11/30 01:46:48;;;;;;;11.68;11.27;;;4.80;99.90;;;;;;5024971;28;20699;-75
2022/11/30 01:49:27;;;;;;;11.17;10.77;;;4.80;99.90;;;;;;5023589;28;20030;-75
2022/11/30 01:52:03;;;;;;;11.23;10.82;;;4.90;99.90;;;;;;5021048;28;20026;-75
2022/11/30 01:54:36;;;;;;;10.88;10.48;;;4.80;99.90;;;;;;5012502;28;20436;-75
2022/11/30 01:57:13;;;;;;;10.35;9.95;;;4.80;99.90;;;;;;5011461;28;20026;-76
2022/11/30 01:59:39;;;;;;;10.20;9.80;;;4.80;99.90;;;;;;5004422;28;20044;-76
2022/11/30 02:02:05;;;;;;;10.70;10.30;;;4.80;99.90;;;;;;5023564;28;20511;-76
2022/11/30 02:04:34;;;;;;;11.10;10.70;;;4.80;99.90;;;;;;5018907;28;20037;-76
2022/11/30 02:07:01;;;;;;;11.07;10.68;;;4.80;99.90;;;;;;5016429;28;20551;-75
2022/11/30 02:09:28;;;;;;;10.60;10.20;;;4.70;99.90;;;;;;5023205;28;20021;-76
2022/11/30 02:11:55;;;;;;;12.38;11.90;;;4.70;99.90;;;;;;5023546;28;20037;-76
2022/11/30 02:14:32;;;;;;;10.90;10.50;;;4.70;99.90;;;;;;5019602;28;20049;-76
2022/11/30 02:17:20;;;;;;;11.45;11.05;;;4.70;99.90;;;;;;5020703;28;20041;-74
2022/11/30 02:20:10;;;;;;;10.30;9.90;;;4.70;99.90;;;;;;5021821;28;20030;-76
2022/11/30 02:22:50;;;;;;;10.05;9.73;;;4.70;99.90;;;;;;5029575;28;20026;-76
2022/11/30 02:26:02;;;;;;;11.20;10.80;;;4.70;99.90;;;;;;5021453;28;20032;-76
2022/11/30 02:28:53;;;;;;;9.50;9.20;;;4.60;99.90;;;;;;4969219;28;20059;-77
2022/11/30 02:31:24;;;;;;;12.05;11.65;;;4.60;99.90;;;;;;5027953;28;20388;-76
2022/11/30 02:33:51;;;;;;;9.85;9.55;;;4.70;99.90;;;;;;5022288;28;20136;-76
2022/11/30 02:36:18;;;;;;;10.65;10.25;;;4.60;99.90;;;;;;5021141;28;20511;-76
2022/11/30 02:38:45;;;;;;;12.95;12.40;;;4.60;99.90;;;;;;5024057;28;20492;-76
2022/11/30 02:41:10;;;;;;;10.38;9.98;;;4.60;99.90;;;;;;5026319;28;20033;-77
2022/11/30 02:43:36;;;;;;;12.02;11.52;;;4.70;99.90;;;;;;5023308;28;20056;-77
2022/11/30 02:46:22;;;;;;;10.88;10.48;;;4.60;99.90;;;;;;5019697;28;20062;-77
2022/11/30 02:49:15;;;;;;;14.30;13.70;;;4.60;99.90;;;;;;5022939;28;20022;-77
2022/11/30 02:51:42;;;;;;;12.45;11.85;;;4.70;99.90;;;;;;5021849;28;20083;-77
2022/11/30 02:54:08;;;;;;;11.45;11.05;;;4.80;99.90;;;;;;5017581;28;20087;-76
2022/11/30 02:56:34;;;;;;;11.55;11.15;;;4.80;99.90;;;;;;5012907;28;20120;-76
2022/11/30 02:58:59;;;;;;;11.23;10.82;;;4.70;99.90;;;;;;5014757;28;20530;-75
2022/11/30 03:01:25;;;;;;;10.10;9.77;;;4.70;99.90;;;;;;5023899;28;20056;-76
2022/11/30 03:03:50;;;;;;;9.43;9.13;;;4.60;99.90;;;;;;5012634;28;20029;-76
2022/11/30 03:06:16;;;;;;;10.07;9.73;;;4.70;99.90;;;;;;5012847;28;20114;-76
2022/11/30 03:08:41;;;;;;;14.60;13.30;;;4.70;99.90;;;;;;5025917;28;20022;-77
2022/11/30 03:11:07;;;;;;;10.10;9.75;;;4.60;99.90;;;;;;5023158;28;20029;-76
2022/11/30 03:13:33;;;;;;;10.95;10.55;;;4.60;99.90;;;;;;5018973;28;20022;-77
2022/11/30 03:16:06;;;;;;;9.80;9.50;;;4.60;99.90;;;;;;5024913;28;20045;-77
2022/11/30 03:18:32;;;;;;;10.82;10.30;;;4.70;99.90;;;;;;5015176;28;20029;-77
2022/11/30 03:20:57;;;;;;;10.23;9.82;;;4.70;99.90;;;;;;5033424;28;20048;-77
2022/11/30 03:23:23;;;;;;;9.27;8.98;;;4.70;99.90;;;;;;5019025;28;20032;-77
2022/11/30 03:25:48;;;;;;;10.07;9.73;;;4.70;99.90;;;;;;5033560;28;20052;-77
2022/11/30 03:28:14;;;;;;;9.27;8.98;;;4.60;99.90;;;;;;5019229;28;20439;-77
2022/11/30 03:30:39;;;;;;;10.05;9.73;;;4.50;99.90;;;;;;5024368;28;20499;-77
2022/11/30 03:33:05;;;;;;;9.43;9.13;;;4.60;99.90;;;;;;5027142;28;20479;-76
2022/11/30 03:35:30;;;;;;;9.20;8.90;;;4.60;99.90;;;;;;5020976;28;20495;-76
2022/11/30 03:37:56;;;;;;;9.27;8.98;;;4.60;99.90;;;;;;5019850;28;20034;-76
2022/11/30 03:40:22;;;;;;;9.48;9.18;;;4.60;99.90;;;;;;5022821;28;20116;-76
2022/11/30 03:42:47;;;;;;;9.32;9.02;;;4.70;99.90;;;;;;5028585;28;20017;-76
2022/11/30 03:45:13;;;;;;;9.68;9.38;;;4.60;99.90;;;;;;5034765;28;20065;-78
2022/11/30 03:47:38;;;;;;;9.55;9.25;;;4.60;99.90;;;;;;5032180;28;20025;-75
2022/11/30 03:50:04;;;;;;;8.73;8.43;;;4.60;99.90;;;;;;5013193;28;20111;-75
2022/11/30 03:52:30;;;;;;;9.07;8.77;;;4.50;99.90;;;;;;5025152;28;20103;-75
2022/11/30 03:54:55;;;;;;;13.20;12.60;;;4.50;99.90;;;;;;5011856;28;20057;-76
2022/11/30 03:57:21;;;;;;;9.30;9.00;;;4.50;99.90;;;;;;5027893;28;20111;-75
2022/11/30 03:59:46;;;;;;;10.32;9.95;;;4.50;99.90;;;;;;5023233;28;20026;-75
2022/11/30 04:02:12;;;;;;;12.07;11.52;;;4.50;99.90;;;;;;5016187;28;20053;-75
2022/11/30 04:04:37;;;;;;;8.80;8.50;;;4.50;99.90;;;;;;5021126;28;20028;-76
2022/11/30 04:07:03;;;;;;;11.30;10.90;;;4.60;99.90;;;;;;5019253;28;20117;-77
2022/11/30 04:09:28;;;;;;;9.48;9.18;;;4.60;99.90;;;;;;5024642;28;20060;-76
2022/11/30 04:11:54;;;;;;;9.27;8.98;;;4.60;99.90;;;;;;5026170;28;20033;-75
2022/11/30 04:14:20;;;;;;;9.70;9.38;;;4.60;99.90;;;;;;5012836;28;20026;-75
2022/11/30 04:16:45;;;;;;;9.77;9.48;;;4.60;99.90;;;;;;5025857;28;20037;-75
2022/11/30 04:19:11;;;;;;;10.43;10.02;;;4.60;99.90;;;;;;5012495;28;20026;-76
2022/11/30 04:21:36;;;;;;;9.55;9.25;;;4.60;99.90;;;;;;5012109;28;20392;-76
2022/11/30 04:24:02;;;;;;;9.88;9.57;;;4.70;99.90;;;;;;5025076;28;20026;-75
2022/11/30 04:26:27;;;;;;;8.70;8.40;;;4.60;99.90;;;;;;5025736;28;20021;-78
2022/11/30 04:28:53;;;;;;;8.52;8.23;;;4.60;99.90;;;;;;5018219;28;20476;-77
2022/11/30 04:31:19;;;;;;;15.13;14.52;;;4.60;99.90;;;;;;5031003;28;20030;-76
2022/11/30 04:33:44;;;;;;;9.07;8.77;;;4.60;99.90;;;;;;5019001;28;20061;-77
2022/11/30 04:36:18;;;;;;;8.57;8.27;;;4.50;99.90;;;;;;5019424;28;20030;-76
2022/11/30 04:38:44;;;;;;;9.48;9.18;;;4.50;99.90;;;;;;5024046;28;20112;-77
2022/11/30 04:41:10;;;;;;;8.43;8.13;;;4.50;99.90;;;;;;5020871;28;20026;-77
2022/11/30 04:43:36;;;;;;;8.30;8.00;;;4.50;99.90;;;;;;5027315;28;20094;-78
2022/11/30 04:46:02;;;;;;;8.98;8.68;;;4.50;99.90;;;;;;5029991;28;20615;-77
2022/11/30 04:48:27;;;;;;;8.15;7.85;;;4.50;99.90;;;;;;5021357;28;20608;-76
2022/11/30 04:50:53;;;;;;;8.48;8.18;;;4.50;99.90;;;;;;5016463;28;20026;-76
2022/11/30 04:53:18;;;;;;;9.60;9.30;;;4.50;99.90;;;;;;5019826;28;20025;-76
2022/11/30 04:55:44;;;;;;;10.30;9.90;;;4.60;99.90;;;;;;5030343;28;20037;-76
2022/11/30 04:58:10;;;;;;;9.55;9.25;;;4.60;99.90;;;;;;5020969;28;20029;-76
2022/11/30 05:00:36;;;;;;;9.15;8.85;;;4.70;99.90;;;;;;5018852;28;20029;-76
2022/11/30 05:03:01;;;;;;;9.60;9.30;;;4.60;99.90;;;;;;5014022;28;20033;-76
2022/11/30 05:05:27;;;;;;;8.40;8.10;;;4.60;99.90;;;;;;5013634;28;20029;-76
2022/11/30 05:07:57;;;;;;;8.90;8.60;;;4.60;99.90;;;;;;5023618;28;20018;-76
2022/11/30 05:10:24;;;;;;;8.45;8.15;;;4.60;99.90;;;;;;5024152;28;20494;-76
2022/11/30 05:12:49;;;;;;;9.27;8.98;;;4.60;99.90;;;;;;5020655;28;20029;-76
2022/11/30 05:15:15;;;;;;;10.15;9.75;;;4.60;99.90;;;;;;5021766;28;20060;-77
2022/11/30 05:17:41;;;;;;;9.52;9.23;;;4.60;99.90;;;;;;5015332;28;20477;-77
2022/11/30 05:20:07;;;;;;;10.07;9.73;;;4.60;99.90;;;;;;5027028;28;20031;-77
2022/11/30 05:22:35;;;;;;;10.55;10.15;;;4.50;99.90;;;;;;5020190;28;20108;-76
2022/11/30 05:25:01;;;;;;;10.45;10.05;;;4.60;99.90;;;;;;5018348;28;20113;-76
2022/11/30 05:27:27;;;;;;;10.20;9.80;;;4.70;99.90;;;;;;5021804;28;20109;-77
2022/11/30 05:29:52;;;;;;;10.02;9.70;;;4.60;99.90;;;;;;5013411;28;20022;-76
2022/11/30 05:32:18;;;;;;;9.00;8.70;;;4.60;99.90;;;;;;5021937;28;20068;-76
2022/11/30 05:34:43;;;;;;;9.63;9.32;;;4.60;99.90;;;;;;5025351;28;20033;-77
2022/11/30 05:37:09;;;;;;;8.57;8.27;;;4.50;99.90;;;;;;5019908;28;20037;-76
2022/11/30 05:39:34;;;;;;;8.70;8.40;;;4.40;99.90;;;;;;5018149;28;20096;-77
2022/11/30 05:42:00;;;;;;;9.75;9.45;;;4.30;99.90;;;;;;5030083;28;20028;-77
2022/11/30 05:44:25;;;;;;;9.48;9.18;;;4.40;99.90;;;;;;5017054;28;20092;-76
2022/11/30 05:46:51;;;;;;;8.68;8.38;;;4.50;99.90;;;;;;5022395;28;20048;-77
2022/11/30 05:49:16;;;;;;;9.75;9.45;;;4.50;99.90;;;;;;5023540;28;20053;-76
2022/11/30 05:51:42;;;;;;;9.60;9.30;;;4.50;99.90;;;;;;5024179;28;20061;-78
2022/11/30 05:54:07;;;;;;;9.68;9.38;;;4.50;99.90;;;;;;5022717;28;20103;-77
2022/11/30 05:56:33;;;;;;;11.48;11.07;;;4.50;99.90;;;;;;5017147;28;20057;-78
2022/11/30 05:58:58;;;;;;;8.70;8.40;;;4.50;99.90;;;;;;5024290;28;20052;-78
2022/11/30 06:01:26;;;;;;;9.45;9.15;;;4.50;99.90;;;;;;5029163;28;20038;-77
2022/11/30 06:03:52;;;;;;;8.57;8.27;;;4.50;99.90;;;;;;5037844;28;20022;-78
2022/11/30 06:06:18;;;;;;;9.07;8.77;;;4.50;99.90;;;;;;5029758;28;20483;-77
2022/11/30 06:08:44;;;;;;;9.30;9.00;;;4.50;99.90;;;;;;5023804;28;20033;-77
2022/11/30 06:11:10;;;;;;;13.98;13.35;;;4.40;99.90;;;;;;5038602;28;20067;-77
2022/11/30 06:13:36;;;;;;;9.27;8.98;;;4.40;99.90;;;;;;5039229;28;20030;-78
2022/11/30 06:16:02;;;;;;;10.30;9.90;;;4.40;99.90;;;;;;5032130;28;20028;-77
2022/11/30 06:18:29;;;;;;;10.95;10.55;;;4.50;99.90;;;;;;5042897;28;20048;-77
2022/11/30 06:21:01;;;;;;;10.02;9.70;;;4.50;99.90;;;;;;5022915;28;20034;-77
2022/11/30 06:23:27;;;;;;;10.88;10.48;;;4.50;99.90;;;;;;5017853;28;20021;-77
2022/11/30 06:25:53;;;;;;;10.45;10.05;;;4.50;99.90;;;;;;5024642;28;20101;-78
2022/11/30 06:28:18;;;;;;;11.52;11.13;;;4.50;99.90;;;;;;5016072;28;20077;-76
2022/11/30 06:30:44;;;;;;;10.20;9.82;;;4.40;99.90;;;;;;5023033;28;20480;-77
2022/11/30 06:33:09;;;;;;;9.32;9.02;;;4.40;99.90;;;;;;5020088;28;20476;-78
2022/11/30 06:35:35;;;;;;;9.48;9.18;;;4.40;99.90;;;;;;5025600;28;20084;-77
2022/11/30 06:38:00;;;;;;;9.65;9.35;;;4.40;99.90;;;;;;5026417;28;20033;-76
2022/11/30 06:40:27;;;;;;;10.00;9.65;;;4.40;99.90;;;;;;5023464;28;20388;-77
2022/11/30 06:42:53;;;;;;;9.95;9.63;;;4.40;99.90;;;;;;5024816;28;20510;-77
2022/11/30 06:45:19;;;;;;;10.23;9.82;;;4.40;99.90;;;;;;5025365;28;20030;-77
2022/11/30 06:47:44;;;;;;;10.70;10.30;;;4.50;99.90;;;;;;5027960;28;20033;-77
2022/11/30 06:50:11;;;;;;;10.45;10.05;;;4.40;99.90;;;;;;5024065;28;20100;-77
2022/11/30 06:52:37;;;;;;;10.40;10.00;;;4.40;99.90;;;;;;5017232;28;20408;-77
2022/11/30 06:55:03;;;;;;;11.35;10.95;;;4.40;99.90;;;;;;5023097;28;20022;-77
2022/11/30 06:57:29;;;;;;;11.25;10.85;;;4.40;99.90;;;;;;5018951;28;20035;-77
2022/11/30 06:59:55;;;;;;;9.20;8.90;;;4.40;99.90;;;;;;5024941;28;20017;-77
2022/11/30 07:02:22;;;;;;;9.15;8.85;;;4.40;99.90;;;;;;5021180;28;20030;-77
2022/11/30 07:04:48;;;;;;;9.40;9.10;;;4.40;99.90;;;;;;5031694;28;20030;-77
2022/11/30 07:07:13;;;;;;;10.30;9.90;;;4.40;99.90;;;;;;5020932;28;20021;-77
2022/11/30 07:09:39;;;;;;;9.30;9.00;;;4.50;99.90;;;;;;5023567;28;20026;-77
2022/11/30 07:12:05;;;;;;;8.60;8.30;;;4.60;99.90;;;;;;5026469;28;20492;-77
2022/11/30 07:14:31;;;;;;;8.88;8.57;;;4.50;99.90;;;;;;5022819;28;20375;-78
2022/11/30 07:16:57;;;;;;;9.20;8.88;;;4.50;99.90;;;;;;5017413;28;20125;-77
2022/11/30 07:19:22;;;;;;;10.15;9.77;;;4.40;99.90;;;;;;5024535;28;20475;-78
2022/11/30 07:21:48;;;;;;;9.27;8.98;;;4.40;99.90;;;;;;5032538;28;20028;-77
2022/11/30 07:27:00;;;;;;;9.73;9.43;;;4.60;99.90;;;;;;5027971;28;20175;-77
2022/11/30 07:29:26;;;;;;;9.77;9.48;;;4.60;99.90;;;;;;5013461;28;20025;-77
2022/11/30 07:31:52;;;;;;;9.15;8.85;;;4.60;99.90;;;;;;5027632;28;20018;-77
2022/11/30 07:34:18;;;;;;;8.77;8.48;;;4.60;99.90;;;;;;5026302;28;20060;-77
2022/11/30 07:36:44;;;;;;;10.05;9.65;;;4.60;99.90;;;;;;5020670;28;20484;-77
2022/11/30 07:39:10;;;;;;;9.90;9.55;;;4.60;99.90;;;;;;5021372;28;20026;-78
2022/11/30 07:41:36;;;;;;;10.10;9.75;;;4.60;99.90;;;;;;5013694;28;20050;-77
2022/11/30 07:44:07;;;;;;;10.77;10.38;;;4.60;99.90;;;;;;5014153;28;20547;-78
2022/11/30 07:46:34;;;;;;;9.07;8.77;;;4.60;99.90;;;;;;5026165;28;20030;-77
2022/11/30 07:49:01;;;;;;;9.45;9.15;;;4.70;99.90;;;;;;5026175;28;20098;-77
2022/11/30 07:51:27;;;;;;;10.77;10.38;;;4.70;99.90;;;;;;5019131;28;20029;-77
2022/11/30 07:53:55;;;;;;;10.75;10.35;;;4.70;99.90;;;;;;5020748;28;20041;-77
2022/11/30 07:56:21;;;;;;;9.55;9.25;;;4.70;99.90;;;;;;5012007;28;20026;-77
2022/11/30 07:58:49;;;;;;;9.48;9.18;;;4.70;99.90;;;;;;5026257;28;20029;-76
2022/11/30 08:01:20;;;;;;;8.98;8.68;;;4.60;99.90;;;;;;5011623;28;20129;-77
2022/11/30 08:03:46;;;;;;;9.25;8.95;;;4.60;99.90;;;;;;5013253;28;20029;-77
2022/11/30 08:06:15;;;;;;;9.40;9.10;;;4.60;99.90;;;;;;5024050;28;20026;-77
2022/11/30 08:08:42;;;;;;;9.75;9.38;;;4.70;99.90;;;;;;5012126;28;20036;-77
2022/11/30 08:11:10;;;;;;;8.10;7.80;;;4.60;99.90;;;;;;5031182;28;20143;-77
2022/11/30 08:13:36;;;;;;;8.93;8.63;;;4.60;99.90;;;;;;5030076;28;20040;-77
2022/11/30 08:16:06;;;;;;;10.40;10.00;;;4.60;99.90;;;;;;5011408;28;20022;-77
2022/11/30 08:18:32;;;;;;;9.05;8.75;;;4.50;99.90;;;;;;5014964;28;20040;-77
2022/11/30 08:21:04;;;;;;;9.30;8.98;;;4.50;99.90;;;;;;5032148;28;20029;-77
2022/11/30 08:23:31;;;;;;;8.20;7.90;;;4.50;99.90;;;;;;5018794;28;20029;-77
2022/11/30 08:26:05;;;;;;;9.07;8.77;;;4.50;99.90;;;;;;5030959;28;20018;-77
2022/11/30 08:28:31;;;;;;;8.85;8.55;;;4.50;99.90;;;;;;5014469;28;20018;-77
2022/11/30 08:31:02;;;;;;;10.57;10.18;;;4.50;99.90;;;;;;5012411;28;20022;-77
2022/11/30 08:33:28;;;;;;;8.73;8.43;;;4.60;99.90;;;;;;5030507;28;20026;-77
2022/11/30 08:35:54;;;;;;;7.80;7.50;;;4.60;99.90;;;;;;5020607;28;20038;-77
2022/11/30 08:38:19;;;;;;;8.85;8.55;;;4.80;99.90;;;;;;5012199;28;20028;-77
2022/11/30 08:40:45;;;;;;;9.00;8.70;;;4.80;99.90;;;;;;5022974;28;20087;-77
2022/11/30 08:43:10;;;;;;;9.93;9.13;;;4.80;99.90;;;;;;5013235;28;20065;-77
2022/11/30 08:45:37;;;;;;;8.43;8.13;;;4.90;99.90;;;;;;5021824;28;20075;-77
2022/11/30 08:48:03;;;;;;;8.82;8.52;;;4.80;99.90;;;;;;5031531;28;20021;-77
2022/11/30 08:50:28;;;;;;;8.98;8.68;;;4.80;99.90;;;;;;5031796;28;20055;-77
2022/11/30 08:52:55;;;;;;;10.13;9.77;;;4.70;99.90;;;;;;5030402;28;20454;-77
2022/11/30 08:55:20;;;;;;;8.68;8.38;;;4.80;99.90;;;;;;5019670;28;20377;-77
2022/11/30 08:57:46;;;;;;;9.30;9.00;;;4.70;99.90;;;;;;5030071;28;20071;-77
2022/11/30 09:00:12;;;;;;;8.60;8.30;;;4.60;99.90;;;;;;5031649;28;20018;-77
2022/11/30 09:02:37;;;;;;;8.07;7.78;;;4.70;99.90;;;;;;5021516;28;20025;-77
2022/11/30 09:05:03;;;;;;;8.02;7.72;;;4.60;99.90;;;;;;5031718;28;20078;-77
2022/11/30 09:07:29;;;;;;;9.75;9.25;;;4.60;99.90;;;;;;5031421;28;20034;-77
2022/11/30 09:09:54;;;;;;;8.35;8.05;;;4.60;99.90;;;;;;5019377;28;20050;-77
2022/11/30 09:12:20;;;;;;;8.77;8.48;;;4.60;99.90;;;;;;5028735;28;20025;-77
2022/11/30 09:14:46;;;;;;;8.15;7.85;;;4.60;99.90;;;;;;5024728;28;20021;-77
2022/11/30 09:17:12;;;;;;;9.65;9.35;;;4.60;99.90;;;;;;5020182;28;20064;-78
2022/11/30 09:19:38;;;;;;;8.57;8.27;;;4.60;99.90;;;;;;5019168;28;20061;-78
2022/11/30 09:22:04;;;;;;;8.18;7.88;;;4.60;99.90;;;;;;5029078;28;20025;-77
2022/11/30 09:24:29;;;;;;;8.73;8.43;;;4.70;99.90;;;;;;5026081;28;20021;-78
2022/11/30 09:26:58;;;;;;;8.73;8.43;;;4.70;99.90;;;;;;5032883;28;20096;-78
2022/11/30 09:29:23;;;;;;;8.00;7.70;;;4.70;99.90;;;;;;5020835;28;20029;-78
2022/11/30 09:31:49;;;;;;;7.22;7.00;;;4.80;99.90;;;;;;5015152;28;20030;-78
2022/11/30 09:34:14;;;;;;;7.00;6.80;;;4.70;99.90;;;;;;5024609;28;20029;-77
2022/11/30 09:36:40;;;;;;;7.85;7.55;;;4.70;99.90;;;;;;5017314;28;20404;-77
2022/11/30 09:39:11;;;;;;;9.30;8.75;;;4.80;99.90;;;;;;5025336;28;20033;-77
2022/11/30 09:42:01;;;;;;;7.70;7.40;;;4.80;99.90;;;;;;5020681;28;20076;-77
2022/11/30 09:44:27;;;;;;;7.15;6.85;;;4.70;99.90;;;;;;5021005;28;20072;-77
2022/11/30 09:47:04;;;;;;;8.13;7.82;;;4.70;99.90;;;;;;5029364;28;20018;-78
2022/11/30 09:49:38;;;;;;;7.72;7.43;;;4.70;99.90;;;;;;5028831;28;20021;-78
2022/11/30 09:52:08;;;;;;;8.00;7.70;;;4.60;99.90;;;;;;5045316;28;20025;-78
2022/11/30 09:54:42;;;;;;;6.85;6.55;;;4.70;99.90;;;;;;5026650;28;20055;-77
2022/11/30 09:57:24;;;;;;;7.45;7.20;;;4.70;99.90;;;;;;5039651;28;20036;-77
2022/11/30 10:00:20;;;;;;;7.10;6.90;;;4.70;99.90;;;;;;5031500;28;20056;-77
2022/11/30 10:02:49;;;;;;;6.10;5.90;;;4.80;99.90;;;;;;5012461;28;20080;-77
2022/11/30 10:05:18;;;;;;;6.57;6.38;;;4.70;99.90;;;;;;5027015;28;20249;-77
2022/11/30 10:07:50;;;;;;;9.00;8.68;;;4.70;99.90;;;;;;5020777;28;20059;-77
2022/11/30 10:10:32;;;;;;;6.75;6.55;;;4.80;99.90;;;;;;5020346;28;20456;-78
2022/11/30 10:13:05;;;;;;;6.70;6.50;;;4.80;99.90;;;;;;5025435;28;20022;-76
2022/11/30 10:16:00;;;;;;;7.63;7.38;;;4.90;99.90;;;;;;5028145;28;20445;-77
2022/11/30 10:18:52;;;;;;;7.20;7.00;;;5.00;99.90;;;;;;5024343;28;20041;-77
2022/11/30 10:21:39;;;;;;;6.35;6.15;;;5.00;99.90;;;;;;5025906;28;20053;-78
2022/11/30 10:24:14;;;;;;;6.07;5.88;;;5.00;99.90;;;;;;4995721;28;20385;-76
2022/11/30 10:26:51;;;;;;;6.60;6.40;;;4.90;99.90;;;;;;5023754;28;20025;-77
2022/11/30 10:29:34;;;;;;;6.45;6.25;;;5.00;99.90;;;;;;5022874;28;20021;-77
2022/11/30 10:32:17;;;;;;;6.57;6.38;;;5.10;99.90;;;;;;5029790;28;20026;-77
2022/11/30 10:34:51;;;;;;;7.10;6.90;;;5.20;99.90;;;;;;5024471;28;20025;-77
2022/11/30 10:37:21;;;;;;;6.85;6.65;;;5.20;99.90;;;;;;5021455;28;20038;-78
2022/11/30 10:40:13;;;;;;;6.07;5.88;;;5.20;99.90;;;;;;5026311;28;20061;-76
2022/11/30 10:42:49;;;;;;;5.85;5.65;;;5.30;99.90;;;;;;5029664;28;20026;-76
2022/11/30 10:45:20;;;;;;;5.90;5.70;;;5.40;99.90;;;;;;5033676;28;20030;-77
2022/11/30 10:48:02;;;;;;;5.30;5.10;;;5.50;99.90;;;;;;5035239;28;20103;-77
2022/11/30 10:50:29;;;;;;;7.18;6.88;;;5.50;99.90;;;;;;5034005;28;20136;-77
2022/11/30 10:52:57;;;;;;;5.68;5.47;;;5.50;99.90;;;;;;5028060;28;20487;-76
2022/11/30 10:55:29;;;;;;;5.90;5.70;;;5.50;99.90;;;;;;5036798;28;20769;-78
2022/11/30 10:58:02;;;;;;;6.28;6.07;;;5.40;99.90;;;;;;5007890;28;20033;-78
2022/11/30 11:00:28;;;;;;;6.60;6.40;;;5.40;99.90;;;;;;5020294;28;20029;-78
2022/11/30 11:02:54;;;;;;;6.10;5.90;;;5.40;99.90;;;;;;5024615;28;20060;-78
2022/11/30 11:05:21;;;;;;;5.90;5.70;;;5.40;99.90;;;;;;5021025;28;20018;-78
2022/11/30 11:07:54;;;;;;;5.95;5.75;;;5.40;99.90;;;;;;5025961;28;20113;-79
2022/11/30 11:10:27;;;;;;;5.70;5.50;;;5.40;99.90;;;;;;5015366;28;20021;-78
2022/11/30 11:12:54;;;;;;;5.50;5.30;;;5.30;99.90;;;;;;5023132;28;20506;-77
2022/11/30 11:15:26;;;;;;;8.32;7.63;;;5.20;99.90;;;;;;5027542;28;20084;-77
2022/11/30 11:17:53;;;;;;;5.30;5.10;;;5.20;99.90;;;;;;5024049;28;20036;-75
2022/11/30 11:20:32;;;;;;;6.15;5.95;;;5.00;99.90;;;;;;5014887;28;20026;-77
2022/11/30 11:22:58;;;;;;;5.40;5.20;;;5.10;99.90;;;;;;5026518;28;20017;-78
2022/11/30 11:25:33;;;;;;;5.68;5.47;;;5.10;99.90;;;;;;5018947;28;20426;-80
2022/11/30 11:28:19;;;;;;;5.65;5.45;;;5.20;99.90;;;;;;5019483;28;20026;-78
2022/11/30 11:30:44;;;;;;;4.68;4.55;;;5.30;99.90;;;;;;5023755;28;20113;-78
2022/11/30 11:33:10;;;;;;;4.80;4.70;;;5.10;99.90;;;;;;5026710;28;20133;-77
2022/11/30 11:35:36;;;;;;;5.68;5.47;;;5.20;99.90;;;;;;5023138;28;20021;-78
2022/11/30 11:38:02;;;;;;;5.80;5.60;;;5.30;99.90;;;;;;5018027;28;20575;-78
2022/11/30 11:40:28;;;;;;;6.30;6.10;;;5.30;99.90;;;;;;5023118;28;20044;-78
2022/11/30 11:42:57;;;;;;;5.80;5.60;;;5.40;99.90;;;;;;5025135;28;20029;-77
2022/11/30 11:45:37;;;;;;;5.00;4.80;;;5.40;99.90;;;;;;5022919;28;20026;-78
2022/11/30 11:48:07;;;;;;;4.50;4.40;;;5.30;99.90;;;;;;5020312;28;20014;-78
2022/11/30 11:50:34;;;;;;;5.22;5.03;;;5.20;99.90;;;;;;5020729;28;20026;-78
2022/11/30 11:53:23;;;;;;;5.53;5.32;;;5.20;99.90;;;;;;5026710;28;20022;-78
2022/11/30 11:56:12;;;;;;;5.30;5.10;;;5.20;99.90;;;;;;5016390;28;20108;-78
2022/11/30 11:58:43;;;;;;;5.30;5.10;;;5.20;99.90;;;;;;5034278;28;20029;-78
2022/11/30 12:01:18;;;;;;;5.72;5.53;;;5.30;99.90;;;;;;5021137;28;20510;-78
2022/11/30 12:03:49;;;;;;;5.45;5.25;;;5.30;99.90;;;;;;5020670;28;20022;-78
2022/11/30 12:06:18;;;;;;;13.18;9.80;;;5.40;99.90;;;;;;5014898;28;20072;-78
2022/11/30 12:08:55;;;;;;;4.85;4.65;;;5.40;99.90;;;;;;5015728;28;20030;-78
2022/11/30 12:11:29;;;;;;;5.10;4.90;;;5.20;99.90;;;;;;5024746;28;20503;-78
2022/11/30 12:13:54;;;;;;;5.53;5.32;;;5.10;99.90;;;;;;5017314;28;20033;-78
2022/11/30 12:16:29;;;;;;;8.82;5.97;;;5.20;99.90;;;;;;5022452;28;20393;-77
2022/11/30 12:19:10;;;;;;;8.82;8.27;;;5.20;99.90;;;;;;5025481;28;20026;-77
2022/11/30 12:22:03;;;;;;;5.25;5.05;;;5.20;99.90;;;;;;5024899;28;20029;-77
2022/11/30 12:24:52;;;;;;;5.38;5.18;;;5.30;99.90;;;;;;5013321;28;20018;-78
2022/11/30 12:28:05;;;;;;;5.18;4.97;;;5.30;99.90;;;;;;5007878;28;20018;-77
2022/11/30 12:30:45;;;;;;;4.65;4.53;;;5.20;99.90;;;;;;4996793;28;20038;-78
2022/11/30 12:33:24;;;;;;;5.13;4.93;;;5.20;99.90;;;;;;5015323;28;20492;-77
2022/11/30 12:35:55;;;;;;;4.30;4.20;;;5.20;99.90;;;;;;5012752;28;20396;-77
2022/11/30 12:38:34;;;;;;;4.95;4.75;;;5.10;99.90;;;;;;5013657;28;20414;-77
2022/11/30 12:41:15;;;;;;;4.75;4.60;;;5.20;99.90;;;;;;5024473;28;20029;-77
2022/11/30 12:44:00;;;;;;;4.75;4.60;;;5.10;99.90;;;;;;5020032;28;20021;-77
2022/11/30 12:46:53;;;;;;;4.40;4.30;;;5.10;99.90;;;;;;5017243;28;20029;-78
2022/11/30 12:49:57;;;;;;;5.03;4.82;;;5.10;99.90;;;;;;5017344;28;20022;-78
2022/11/30 12:52:35;;;;;;;4.97;4.78;;;5.10;99.90;;;;;;4988444;28;20113;-77
2022/11/30 12:55:25;;;;;;;4.88;4.68;;;5.10;99.90;;;;;;5032369;28;20475;-77
2022/11/30 12:58:06;;;;;;;4.40;4.30;;;5.10;99.90;;;;;;5018194;28;20107;-77
2022/11/30 13:01:08;;;;;;;4.93;4.72;;;5.20;99.90;;;;;;5029261;28;20120;-77
2022/11/30 13:03:58;;;;;;;4.20;4.10;;;5.10;99.90;;;;;;5023811;28;20026;-77
2022/11/30 13:06:34;;;;;;;6.38;6.18;;;5.10;99.90;;;;;;5020715;28;20021;-77